KSDM/SDM METAR and TAF weather

Enter ICAO airport designator
Station Type Date Time Source
KSDM METAR 2020/11/25 22:53 UTC NOAA

KSDM 252253Z 28006KT 10SM CLR 18/11 A3004 RMK AO2 SLP170 T01830111


Station Type Date Time Source
KSDM Decoded METAR 2020/11/25 22:53 UTC NOAA

San Diego, Brown Field Municipal Airport, CA, United States (KSDM) 32-34-31N 116-59-35W 159M
Nov 25, 2020 - 05:53 PM EST / 2020.11.25 2253 UTC
Wind: from the W (280 degrees) at 7 MPH (6 KT):0
Visibility: 10 mile(s):0
Sky conditions: clear
Temperature: 64.9 F (18.3 C)
Dew Point: 52.0 F (11.1 C)
Relative Humidity: 62%
Pressure (altimeter): 30.04 in. Hg (1017 hPa)
ob: KSDM 252253Z 28006KT 10SM CLR 18/11 A3004 RMK AO2 SLP170 T01830111
cycle: 23

Station Type Date Time Source
KSDM TAF UTC NOAA

Error!

Example: see airport list